Terminal Aerodrome Forecast
Issued by NWS Mt. Holly, NJ

Home | Current Version | Previous Version | Text Only | Print | Product List | Glossary On
Versions: 1 2 3 4 5 6 7 8 9 10 11 12 13 14 15 16 17 18 19 20 21 22 23 24 25 26
000
FTUS41 KPHI 132300
TAFRDG
TAF
KRDG 132334Z 1400/1424 19012KT P6SM SCT030 BKN100
      TEMPO 1401/1403 VRB15G30KT 3SM TSRA BR OVC020CB
     FM140300 VRB03KT 4SM BR SCT020 BKN100
     FM140900 VRB03KT 2SM BR BKN015
     FM141300 23005KT P6SM SCT030 BKN050
     FM141800 22008KT P6SM BKN040
      TEMPO 1420/1424 3SM SHRA BKN025=

USA.gov is the U.S. government's official web portal to all federal, state and local government web resources and services.